메인 페이지
METAR-TAF:

METAR-TAF

공항 :

룩셈부르크, 룩셈부르크

룩셈부르크 핀델 국제공항

위도: 49-37N, 경도: 006-13E, 고도: 376m

현재 날씨관측

예보는 32분 전, 05:20시(UTC)에 발표되었습니다.
북북동5kt풍과 북동풍을 오가는
온도 -2°C
습도 86%
기압 1015 hPa
시정: 4500m
고도 1800ft 상공 구름 조금
박무

METAR: ELLX 200520Z 03005KT 350V050 4500 BR FEW018 M02/M04 Q1015 R06/19//59 NOSIG

시각: 06:52 (05:52 UTC)

예보

예보는 52분 전, 05:00시(UTC)에 발표되었습니다.
예보 대상 시간: 20일 06시부터 21일 12시까지 (UTC)
북동8kt
시정: 4000m
고도 2500ft 상공 구름 보통
박무
전환 중
20일 07시부터 20일 09시까지 (UTC)
시정 10km 이상
일시적
20일 09시부터 20일 22시까지 (UTC)
시정 10km 이상
1500m 미만 상공 구름 및 적란운 없음
일시적
20일 22시부터 21일 09시까지 (UTC)
시정: 3000m
박무

TAF: ELLX 200500Z 2006/2112 05008KT 4000 BR SCT025 BECMG 2007/2009 9999 NSW TEMPO 2009/2022 CAVOK TEMPO 2022/2109 3000 BR NSC

4,000개 이상의 공항 관측 자료 및 예보 (METAR 및 TAF 보고).

지도상에서 검색 가능한 기상관측소가 노란 점과 빨간 점으로 표시되어 있습니다.

기상관측소 명을 보려면 표시 위로 마우스를 이동하세요.

날씨 관측과 예보를 보려면 클릭하세요.

지도 변경 : 확대하려면 엑스 표시가 있는 녹색 버튼, 축소하려면 빼기 표시가 있는 녹색 버튼, 다음 페이지의 지도를 보려면 녹색 화살표를 클릭하세요.


METAR-TAF: